sensor_id;sensor_type;location;lat;lon;timestamp;P1;durP1;ratioP1;P2;durP2;ratioP2
74259;SDS011;62630;55.874;37.516;2022-08-02T00:01:40;8.40;;;3.25;;
74259;SDS011;62630;55.874;37.516;2022-08-02T00:04:06;7.70;;;3.47;;
74259;SDS011;62630;55.874;37.516;2022-08-02T00:06:33;6.65;;;4.00;;
74259;SDS011;62630;55.874;37.516;2022-08-02T00:08:59;9.32;;;3.95;;
74259;SDS011;62630;55.874;37.516;2022-08-02T00:11:24;5.40;;;3.58;;
74259;SDS011;62630;55.874;37.516;2022-08-02T00:13:50;6.28;;;3.13;;
74259;SDS011;62630;55.874;37.516;2022-08-02T00:16:15;8.38;;;3.50;;
74259;SDS011;62630;55.874;37.516;2022-08-02T00:18:41;5.90;;;3.40;;
74259;SDS011;62630;55.874;37.516;2022-08-02T00:21:06;7.07;;;3.42;;
74259;SDS011;62630;55.874;37.516;2022-08-02T00:23:32;7.53;;;3.13;;
74259;SDS011;62630;55.874;37.516;2022-08-02T00:25:58;5.80;;;3.05;;
74259;SDS011;62630;55.874;37.516;2022-08-02T00:28:23;5.03;;;2.90;;
74259;SDS011;62630;55.874;37.516;2022-08-02T00:30:49;5.43;;;3.50;;
74259;SDS011;62630;55.874;37.516;2022-08-02T00:33:15;6.00;;;2.83;;
74259;SDS011;62630;55.874;37.516;2022-08-02T00:35:40;5.22;;;3.00;;
74259;SDS011;62630;55.874;37.516;2022-08-02T00:38:06;6.07;;;3.35;;
74259;SDS011;62630;55.874;37.516;2022-08-02T00:40:32;5.70;;;3.33;;
74259;SDS011;62630;55.874;37.516;2022-08-02T00:43:05;4.65;;;2.92;;
74259;SDS011;62630;55.874;37.516;2022-08-02T00:45:35;7.10;;;3.25;;
74259;SDS011;62630;55.874;37.516;2022-08-02T00:48:02;5.40;;;3.53;;
74259;SDS011;62630;55.874;37.516;2022-08-02T00:50:29;5.55;;;3.08;;
74259;SDS011;62630;55.874;37.516;2022-08-02T00:52:54;4.05;;;2.63;;
74259;SDS011;62630;55.874;37.516;2022-08-02T00:55:21;4.68;;;3.08;;
74259;SDS011;62630;55.874;37.516;2022-08-02T00:57:47;6.22;;;3.40;;
74259;SDS011;62630;55.874;37.516;2022-08-02T01:00:13;5.00;;;2.97;;
74259;SDS011;62630;55.874;37.516;2022-08-02T01:02:39;7.72;;;3.40;;
74259;SDS011;62630;55.874;37.516;2022-08-02T01:05:05;3.97;;;3.13;;
74259;SDS011;62630;55.874;37.516;2022-08-02T01:07:31;8.57;;;3.33;;
74259;SDS011;62630;55.874;37.516;2022-08-02T01:09:57;8.13;;;3.35;;
74259;SDS011;62630;55.874;37.516;2022-08-02T01:12:24;5.13;;;2.90;;
74259;SDS011;62630;55.874;37.516;2022-08-02T01:14:50;4.40;;;2.90;;
74259;SDS011;62630;55.874;37.516;2022-08-02T01:36:37;4.90;;;3.40;;
74259;SDS011;62630;55.874;37.516;2022-08-02T01:39:06;3.78;;;2.95;;
74259;SDS011;62630;55.874;37.516;2022-08-02T01:41:35;4.68;;;3.22;;
74259;SDS011;62630;55.874;37.516;2022-08-02T01:44:02;7.30;;;3.65;;
74259;SDS011;62630;55.874;37.516;2022-08-02T01:46:32;7.18;;;3.85;;
74259;SDS011;62630;55.874;37.516;2022-08-02T01:48:58;7.07;;;3.38;;
74259;SDS011;62630;55.874;37.516;2022-08-02T01:51:28;7.45;;;3.60;;
74259;SDS011;62630;55.874;37.516;2022-08-02T01:54:15;6.95;;;3.08;;
74259;SDS011;62630;55.874;37.516;2022-08-02T01:56:43;8.65;;;4.22;;
74259;SDS011;62630;55.874;37.516;2022-08-02T01:59:12;8.38;;;3.70;;
74259;SDS011;62630;55.874;37.516;2022-08-02T02:01:40;6.07;;;3.58;;
74259;SDS011;62630;55.874;37.516;2022-08-02T02:04:08;6.32;;;3.60;;
74259;SDS011;62630;55.874;37.516;2022-08-02T02:06:35;4.60;;;3.40;;
74259;SDS011;62630;55.874;37.516;2022-08-02T02:09:02;8.25;;;4.00;;
74259;SDS011;62630;55.874;37.516;2022-08-02T02:11:29;8.25;;;4.07;;
74259;SDS011;62630;55.874;37.516;2022-08-02T02:13:59;10.55;;;3.40;;
74259;SDS011;62630;55.874;37.516;2022-08-02T02:16:27;11.73;;;3.63;;
74259;SDS011;62630;55.874;37.516;2022-08-02T02:18:55;7.78;;;3.38;;
74259;SDS011;62630;55.874;37.516;2022-08-02T02:21:23;7.30;;;3.53;;
74259;SDS011;62630;55.874;37.516;2022-08-02T02:23:49;8.73;;;3.85;;
74259;SDS011;62630;55.874;37.516;2022-08-02T02:26:15;5.57;;;4.05;;
74259;SDS011;62630;55.874;37.516;2022-08-02T02:31:11;4.82;;;3.92;;
74259;SDS011;62630;55.874;37.516;2022-08-02T02:33:40;7.47;;;3.75;;
74259;SDS011;62630;55.874;37.516;2022-08-02T02:36:12;7.95;;;4.55;;
74259;SDS011;62630;55.874;37.516;2022-08-02T02:38:45;10.80;;;5.00;;
74259;SDS011;62630;55.874;37.516;2022-08-02T02:41:11;7.70;;;3.85;;
74259;SDS011;62630;55.874;37.516;2022-08-02T02:43:39;7.53;;;3.92;;
74259;SDS011;62630;55.874;37.516;2022-08-02T02:46:07;7.97;;;3.90;;
74259;SDS011;62630;55.874;37.516;2022-08-02T02:48:35;6.32;;;3.42;;
74259;SDS011;62630;55.874;37.516;2022-08-02T02:51:04;8.23;;;4.03;;
74259;SDS011;62630;55.874;37.516;2022-08-02T02:53:32;10.75;;;3.53;;
74259;SDS011;62630;55.874;37.516;2022-08-02T02:56:00;8.25;;;4.63;;
74259;SDS011;62630;55.874;37.516;2022-08-02T02:58:26;10.93;;;3.90;;
74259;SDS011;62630;55.874;37.516;2022-08-02T03:00:52;9.55;;;4.78;;
74259;SDS011;62630;55.874;37.516;2022-08-02T03:03:36;7.20;;;4.13;;
74259;SDS011;62630;55.874;37.516;2022-08-02T03:06:02;12.23;;;4.00;;
74259;SDS011;62630;55.874;37.516;2022-08-02T03:08:28;7.35;;;4.20;;
74259;SDS011;62630;55.874;37.516;2022-08-02T03:10:54;11.23;;;4.53;;
74259;SDS011;62630;55.874;37.516;2022-08-02T03:13:20;10.05;;;4.13;;
74259;SDS011;62630;55.874;37.516;2022-08-02T03:15:46;12.15;;;4.38;;
74259;SDS011;62630;55.874;37.516;2022-08-02T03:21:12;10.23;;;4.32;;
74259;SDS011;62630;55.874;37.516;2022-08-02T03:23:39;11.25;;;4.90;;
74259;SDS011;62630;55.874;37.516;2022-08-02T03:26:06;8.65;;;4.00;;
74259;SDS011;62630;55.874;37.516;2022-08-02T03:28:32;12.50;;;4.78;;
74259;SDS011;62630;55.874;37.516;2022-08-02T03:30:58;14.07;;;4.93;;
74259;SDS011;62630;55.874;37.516;2022-08-02T03:33:25;10.05;;;4.20;;
74259;SDS011;62630;55.874;37.516;2022-08-02T03:35:56;11.32;;;5.30;;
74259;SDS011;62630;55.874;37.516;2022-08-02T03:38:23;8.38;;;4.65;;
74259;SDS011;62630;55.874;37.516;2022-08-02T03:40:50;13.38;;;4.55;;
74259;SDS011;62630;55.874;37.516;2022-08-02T03:43:17;10.30;;;5.15;;
74259;SDS011;62630;55.874;37.516;2022-08-02T03:45:45;16.10;;;5.93;;
74259;SDS011;62630;55.874;37.516;2022-08-02T03:48:12;12.38;;;4.82;;
74259;SDS011;62630;55.874;37.516;2022-08-02T03:50:39;9.63;;;5.40;;
74259;SDS011;62630;55.874;37.516;2022-08-02T03:53:06;11.35;;;5.43;;
74259;SDS011;62630;55.874;37.516;2022-08-02T03:55:33;10.00;;;5.10;;
74259;SDS011;62630;55.874;37.516;2022-08-02T03:57:59;12.88;;;4.93;;
74259;SDS011;62630;55.874;37.516;2022-08-02T04:00:25;13.43;;;4.45;;
74259;SDS011;62630;55.874;37.516;2022-08-02T04:02:51;12.52;;;4.72;;
74259;SDS011;62630;55.874;37.516;2022-08-02T04:05:17;18.50;;;5.88;;
74259;SDS011;62630;55.874;37.516;2022-08-02T04:07:43;7.43;;;5.00;;
74259;SDS011;62630;55.874;37.516;2022-08-02T04:10:09;10.40;;;4.68;;
74259;SDS011;62630;55.874;37.516;2022-08-02T04:12:35;10.52;;;5.22;;
74259;SDS011;62630;55.874;37.516;2022-08-02T04:15:04;12.68;;;4.72;;
74259;SDS011;62630;55.874;37.516;2022-08-02T04:17:31;10.15;;;4.68;;
74259;SDS011;62630;55.874;37.516;2022-08-02T04:20:01;13.45;;;4.85;;
74259;SDS011;62630;55.874;37.516;2022-08-02T04:23:20;11.00;;;4.93;;
74259;SDS011;62630;55.874;37.516;2022-08-02T04:25:28;7.93;;;5.10;;
74259;SDS011;62630;55.874;37.516;2022-08-02T04:27:55;17.02;;;5.13;;
74259;SDS011;62630;55.874;37.516;2022-08-02T04:30:22;9.43;;;4.55;;
74259;SDS011;62630;55.874;37.516;2022-08-02T04:32:48;7.40;;;5.07;;
74259;SDS011;62630;55.874;37.516;2022-08-02T04:35:15;10.27;;;4.60;;
74259;SDS011;62630;55.874;37.516;2022-08-02T04:37:40;16.92;;;5.53;;
74259;SDS011;62630;55.874;37.516;2022-08-02T04:40:10;11.38;;;5.20;;
74259;SDS011;62630;55.874;37.516;2022-08-02T04:42:36;7.47;;;4.13;;
74259;SDS011;62630;55.874;37.516;2022-08-02T04:45:02;10.23;;;5.13;;
74259;SDS011;62630;55.874;37.516;2022-08-02T04:49:54;12.43;;;4.70;;
74259;SDS011;62630;55.874;37.516;2022-08-02T04:52:20;10.10;;;4.22;;
74259;SDS011;62630;55.874;37.516;2022-08-02T04:54:45;15.98;;;4.68;;
74259;SDS011;62630;55.874;37.516;2022-08-02T04:57:11;10.70;;;4.72;;
74259;SDS011;62630;55.874;37.516;2022-08-02T04:59:55;15.05;;;4.78;;
74259;SDS011;62630;55.874;37.516;2022-08-02T05:02:20;15.50;;;4.18;;
74259;SDS011;62630;55.874;37.516;2022-08-02T05:04:46;15.20;;;4.68;;
74259;SDS011;62630;55.874;37.516;2022-08-02T05:07:11;11.95;;;4.28;;
74259;SDS011;62630;55.874;37.516;2022-08-02T05:09:39;9.15;;;3.97;;
74259;SDS011;62630;55.874;37.516;2022-08-02T05:12:07;14.88;;;4.20;;
74259;SDS011;62630;55.874;37.516;2022-08-02T05:14:33;11.00;;;3.47;;
74259;SDS011;62630;55.874;37.516;2022-08-02T05:16:59;10.55;;;3.90;;
74259;SDS011;62630;55.874;37.516;2022-08-02T05:19:25;8.02;;;4.10;;
74259;SDS011;62630;55.874;37.516;2022-08-02T05:21:50;11.15;;;4.05;;
74259;SDS011;62630;55.874;37.516;2022-08-02T05:24:16;19.38;;;4.40;;
74259;SDS011;62630;55.874;37.516;2022-08-02T05:26:41;10.10;;;4.53;;
74259;SDS011;62630;55.874;37.516;2022-08-02T05:29:07;7.72;;;3.53;;
74259;SDS011;62630;55.874;37.516;2022-08-02T05:31:32;12.23;;;3.08;;
74259;SDS011;62630;55.874;37.516;2022-08-02T05:33:58;7.55;;;2.90;;
74259;SDS011;62630;55.874;37.516;2022-08-02T05:36:23;10.35;;;3.15;;
74259;SDS011;62630;55.874;37.516;2022-08-02T05:38:49;11.52;;;3.63;;
74259;SDS011;62630;55.874;37.516;2022-08-02T05:41:18;9.32;;;3.13;;
74259;SDS011;62630;55.874;37.516;2022-08-02T05:43:44;9.30;;;3.20;;
74259;SDS011;62630;55.874;37.516;2022-08-02T05:46:10;5.75;;;2.67;;
74259;SDS011;62630;55.874;37.516;2022-08-02T05:48:36;7.68;;;2.85;;
74259;SDS011;62630;55.874;37.516;2022-08-02T05:51:03;8.13;;;2.92;;
74259;SDS011;62630;55.874;37.516;2022-08-02T05:53:48;6.47;;;2.63;;
74259;SDS011;62630;55.874;37.516;2022-08-02T06:01:33;9.20;;;2.78;;
74259;SDS011;62630;55.874;37.516;2022-08-02T06:04:07;5.60;;;2.85;;
74259;SDS011;62630;55.874;37.516;2022-08-02T06:06:36;15.07;;;3.70;;
74259;SDS011;62630;55.874;37.516;2022-08-02T06:09:16;8.30;;;3.50;;
74259;SDS011;62630;55.874;37.516;2022-08-02T06:14:12;8.13;;;2.95;;
74259;SDS011;62630;55.874;37.516;2022-08-02T06:16:38;11.93;;;3.20;;
74259;SDS011;62630;55.874;37.516;2022-08-02T06:19:04;14.48;;;2.83;;
74259;SDS011;62630;55.874;37.516;2022-08-02T06:21:31;11.27;;;3.00;;
74259;SDS011;62630;55.874;37.516;2022-08-02T06:23:57;12.88;;;3.80;;
74259;SDS011;62630;55.874;37.516;2022-08-02T06:26:23;12.68;;;3.00;;
74259;SDS011;62630;55.874;37.516;2022-08-02T06:28:53;10.60;;;3.42;;
74259;SDS011;62630;55.874;37.516;2022-08-02T06:31:21;12.27;;;3.58;;
74259;SDS011;62630;55.874;37.516;2022-08-02T06:33:47;16.23;;;3.47;;
74259;SDS011;62630;55.874;37.516;2022-08-02T06:36:17;9.13;;;2.70;;
74259;SDS011;62630;55.874;37.516;2022-08-02T06:39:02;6.35;;;2.90;;
74259;SDS011;62630;55.874;37.516;2022-08-02T06:41:37;11.82;;;2.92;;
74259;SDS011;62630;55.874;37.516;2022-08-02T06:44:06;6.47;;;3.33;;
74259;SDS011;62630;55.874;37.516;2022-08-02T06:46:34;11.80;;;3.80;;
74259;SDS011;62630;55.874;37.516;2022-08-02T06:49:00;7.60;;;2.58;;
74259;SDS011;62630;55.874;37.516;2022-08-02T06:51:26;6.13;;;2.90;;
74259;SDS011;62630;55.874;37.516;2022-08-02T06:53:52;6.72;;;2.67;;
74259;SDS011;62630;55.874;37.516;2022-08-02T06:56:18;6.40;;;2.45;;
74259;SDS011;62630;55.874;37.516;2022-08-02T06:58:44;5.65;;;2.85;;
74259;SDS011;62630;55.874;37.516;2022-08-02T07:01:10;11.50;;;2.40;;
74259;SDS011;62630;55.874;37.516;2022-08-02T07:03:37;5.28;;;2.40;;
74259;SDS011;62630;55.874;37.516;2022-08-02T07:06:04;5.80;;;2.42;;
74259;SDS011;62630;55.874;37.516;2022-08-02T07:08:33;8.98;;;2.75;;
74259;SDS011;62630;55.874;37.516;2022-08-02T07:11:02;10.95;;;3.33;;
74259;SDS011;62630;55.874;37.516;2022-08-02T07:13:29;9.15;;;3.00;;
74259;SDS011;62630;55.874;37.516;2022-08-02T07:15:55;14.25;;;3.42;;
74259;SDS011;62630;55.874;37.516;2022-08-02T07:18:21;6.70;;;2.75;;
74259;SDS011;62630;55.874;37.516;2022-08-02T07:23:13;8.57;;;2.70;;
74259;SDS011;62630;55.874;37.516;2022-08-02T07:25:38;6.55;;;2.88;;
74259;SDS011;62630;55.874;37.516;2022-08-02T07:28:05;9.68;;;2.67;;
74259;SDS011;62630;55.874;37.516;2022-08-02T07:30:30;9.05;;;2.17;;
74259;SDS011;62630;55.874;37.516;2022-08-02T07:32:57;5.65;;;2.45;;
74259;SDS011;62630;55.874;37.516;2022-08-02T07:35:23;6.80;;;2.53;;
74259;SDS011;62630;55.874;37.516;2022-08-02T07:37:49;6.25;;;2.85;;
74259;SDS011;62630;55.874;37.516;2022-08-02T07:40:15;9.32;;;2.40;;
74259;SDS011;62630;55.874;37.516;2022-08-02T07:42:43;5.88;;;2.60;;
74259;SDS011;62630;55.874;37.516;2022-08-02T07:45:09;9.05;;;2.92;;
74259;SDS011;62630;55.874;37.516;2022-08-02T07:47:36;5.20;;;2.20;;
74259;SDS011;62630;55.874;37.516;2022-08-02T07:50:03;5.45;;;1.70;;
74259;SDS011;62630;55.874;37.516;2022-08-02T07:52:30;6.68;;;2.03;;
74259;SDS011;62630;55.874;37.516;2022-08-02T07:54:55;2.78;;;1.60;;
74259;SDS011;62630;55.874;37.516;2022-08-02T07:57:20;6.95;;;1.83;;
74259;SDS011;62630;55.874;37.516;2022-08-02T07:59:46;9.07;;;2.13;;
74259;SDS011;62630;55.874;37.516;2022-08-02T08:02:12;5.63;;;1.98;;
74259;SDS011;62630;55.874;37.516;2022-08-02T08:04:39;4.15;;;1.80;;
74259;SDS011;62630;55.874;37.516;2022-08-02T08:07:05;7.05;;;2.10;;
74259;SDS011;62630;55.874;37.516;2022-08-02T08:09:34;4.35;;;2.10;;
74259;SDS011;62630;55.874;37.516;2022-08-02T08:12:04;6.25;;;1.75;;
74259;SDS011;62630;55.874;37.516;2022-08-02T08:14:30;5.13;;;1.55;;
74259;SDS011;62630;55.874;37.516;2022-08-02T08:16:58;3.75;;;1.48;;
74259;SDS011;62630;55.874;37.516;2022-08-02T08:19:24;6.10;;;2.03;;
74259;SDS011;62630;55.874;37.516;2022-08-02T08:21:50;1.88;;;1.70;;
74259;SDS011;62630;55.874;37.516;2022-08-02T08:24:15;5.38;;;1.60;;
74259;SDS011;62630;55.874;37.516;2022-08-02T08:26:41;4.43;;;1.77;;
74259;SDS011;62630;55.874;37.516;2022-08-02T08:29:06;3.25;;;1.70;;
74259;SDS011;62630;55.874;37.516;2022-08-02T08:31:32;5.45;;;1.88;;
74259;SDS011;62630;55.874;37.516;2022-08-02T08:33:58;3.72;;;1.90;;
74259;SDS011;62630;55.874;37.516;2022-08-02T08:36:24;3.95;;;2.13;;
74259;SDS011;62630;55.874;37.516;2022-08-02T08:38:50;9.48;;;1.90;;
74259;SDS011;62630;55.874;37.516;2022-08-02T08:41:16;3.63;;;1.95;;
74259;SDS011;62630;55.874;37.516;2022-08-02T08:43:42;6.97;;;2.03;;
74259;SDS011;62630;55.874;37.516;2022-08-02T08:46:16;2.60;;;2.00;;
74259;SDS011;62630;55.874;37.516;2022-08-02T08:48:49;3.60;;;1.55;;
74259;SDS011;62630;55.874;37.516;2022-08-02T08:51:21;4.68;;;1.83;;
74259;SDS011;62630;55.874;37.516;2022-08-02T08:53:48;6.10;;;2.40;;
74259;SDS011;62630;55.874;37.516;2022-08-02T08:56:18;7.88;;;2.08;;
74259;SDS011;62630;55.874;37.516;2022-08-02T08:58:44;5.07;;;1.88;;
74259;SDS011;62630;55.874;37.516;2022-08-02T09:01:13;2.53;;;2.00;;
74259;SDS011;62630;55.874;37.516;2022-08-02T09:03:40;4.72;;;2.28;;
74259;SDS011;62630;55.874;37.516;2022-08-02T09:06:07;6.00;;;2.58;;
74259;SDS011;62630;55.874;37.516;2022-08-02T09:08:32;6.32;;;1.90;;
74259;SDS011;62630;55.874;37.516;2022-08-02T09:10:58;4.95;;;2.17;;
74259;SDS011;62630;55.874;37.516;2022-08-02T09:13:24;7.70;;;2.22;;
74259;SDS011;62630;55.874;37.516;2022-08-02T09:18:33;3.60;;;2.42;;
74259;SDS011;62630;55.874;37.516;2022-08-02T09:21:10;8.55;;;2.65;;
74259;SDS011;62630;55.874;37.516;2022-08-02T09:23:40;6.95;;;2.38;;
74259;SDS011;62630;55.874;37.516;2022-08-02T09:26:10;8.63;;;2.40;;
74259;SDS011;62630;55.874;37.516;2022-08-02T09:28:39;6.32;;;2.00;;
74259;SDS011;62630;55.874;37.516;2022-08-02T09:31:07;11.02;;;2.15;;
74259;SDS011;62630;55.874;37.516;2022-08-02T09:33:35;3.22;;;2.15;;
74259;SDS011;62630;55.874;37.516;2022-08-02T09:38:38;4.75;;;1.95;;
74259;SDS011;62630;55.874;37.516;2022-08-02T09:41:05;3.58;;;2.05;;
74259;SDS011;62630;55.874;37.516;2022-08-02T09:46:18;3.97;;;1.70;;
74259;SDS011;62630;55.874;37.516;2022-08-02T09:48:46;4.80;;;2.00;;
74259;SDS011;62630;55.874;37.516;2022-08-02T09:51:21;3.13;;;1.95;;
74259;SDS011;62630;55.874;37.516;2022-08-02T09:53:50;6.95;;;2.17;;
74259;SDS011;62630;55.874;37.516;2022-08-02T09:56:18;6.95;;;2.25;;
74259;SDS011;62630;55.874;37.516;2022-08-02T10:01:10;2.40;;;1.88;;
74259;SDS011;62630;55.874;37.516;2022-08-02T10:03:36;3.50;;;1.83;;
74259;SDS011;62630;55.874;37.516;2022-08-02T10:06:01;4.40;;;2.25;;
74259;SDS011;62630;55.874;37.516;2022-08-02T10:08:28;6.28;;;2.10;;
74259;SDS011;62630;55.874;37.516;2022-08-02T10:10:55;2.60;;;2.10;;
74259;SDS011;62630;55.874;37.516;2022-08-02T10:13:32;8.27;;;2.10;;
74259;SDS011;62630;55.874;37.516;2022-08-02T10:15:59;5.13;;;2.10;;
74259;SDS011;62630;55.874;37.516;2022-08-02T10:18:29;5.18;;;2.30;;
74259;SDS011;62630;55.874;37.516;2022-08-02T10:20:57;5.75;;;2.33;;
74259;SDS011;62630;55.874;37.516;2022-08-02T10:23:33;5.28;;;2.40;;
74259;SDS011;62630;55.874;37.516;2022-08-02T10:26:04;3.75;;;1.92;;
74259;SDS011;62630;55.874;37.516;2022-08-02T10:28:31;2.85;;;1.88;;
74259;SDS011;62630;55.874;37.516;2022-08-02T10:31:01;5.15;;;2.10;;
74259;SDS011;62630;55.874;37.516;2022-08-02T10:33:29;3.72;;;2.63;;
74259;SDS011;62630;55.874;37.516;2022-08-02T10:35:59;4.55;;;2.30;;
74259;SDS011;62630;55.874;37.516;2022-08-02T10:38:26;6.30;;;2.10;;
74259;SDS011;62630;55.874;37.516;2022-08-02T10:40:53;5.65;;;2.08;;
74259;SDS011;62630;55.874;37.516;2022-08-02T10:54:26;4.38;;;2.08;;
74259;SDS011;62630;55.874;37.516;2022-08-02T10:56:54;3.10;;;1.83;;
74259;SDS011;62630;55.874;37.516;2022-08-02T11:01:52;9.77;;;2.30;;
74259;SDS011;62630;55.874;37.516;2022-08-02T11:04:26;3.53;;;2.25;;
74259;SDS011;62630;55.874;37.516;2022-08-02T11:09:32;4.38;;;1.83;;
74259;SDS011;62630;55.874;37.516;2022-08-02T11:12:01;3.42;;;1.73;;
74259;SDS011;62630;55.874;37.516;2022-08-02T11:14:27;3.05;;;2.00;;
74259;SDS011;62630;55.874;37.516;2022-08-02T11:19:19;2.85;;;1.88;;
74259;SDS011;62630;55.874;37.516;2022-08-02T11:21:58;2.35;;;1.83;;
74259;SDS011;62630;55.874;37.516;2022-08-02T11:24:40;3.85;;;2.25;;
74259;SDS011;62630;55.874;37.516;2022-08-02T11:27:17;3.63;;;2.35;;
74259;SDS011;62630;55.874;37.516;2022-08-02T11:29:45;8.43;;;1.88;;
74259;SDS011;62630;55.874;37.516;2022-08-02T11:32:20;5.00;;;2.53;;
74259;SDS011;62630;55.874;37.516;2022-08-02T11:34:52;3.83;;;2.10;;
74259;SDS011;62630;55.874;37.516;2022-08-02T11:39:52;7.40;;;2.03;;
74259;SDS011;62630;55.874;37.516;2022-08-02T11:42:18;5.68;;;2.10;;
74259;SDS011;62630;55.874;37.516;2022-08-02T11:44:43;6.28;;;2.10;;
74259;SDS011;62630;55.874;37.516;2022-08-02T11:47:10;4.03;;;1.90;;
74259;SDS011;62630;55.874;37.516;2022-08-02T11:49:37;4.13;;;1.83;;
74259;SDS011;62630;55.874;37.516;2022-08-02T11:52:04;4.43;;;1.92;;
74259;SDS011;62630;55.874;37.516;2022-08-02T11:54:34;4.25;;;1.70;;
74259;SDS011;62630;55.874;37.516;2022-08-02T11:57:17;4.45;;;1.95;;
74259;SDS011;62630;55.874;37.516;2022-08-02T11:59:50;3.15;;;2.30;;
74259;SDS011;62630;55.874;37.516;2022-08-02T12:02:20;7.32;;;2.22;;
74259;SDS011;62630;55.874;37.516;2022-08-02T12:05:08;7.32;;;2.50;;
74259;SDS011;62630;55.874;37.516;2022-08-02T12:07:44;6.82;;;2.15;;
74259;SDS011;62630;55.874;37.516;2022-08-02T12:10:11;6.85;;;1.77;;
74259;SDS011;62630;55.874;37.516;2022-08-02T12:13:12;4.57;;;2.20;;
74259;SDS011;62630;55.874;37.516;2022-08-02T12:15:33;3.65;;;2.05;;
74259;SDS011;62630;55.874;37.516;2022-08-02T12:17:59;7.50;;;2.33;;
74259;SDS011;62630;55.874;37.516;2022-08-02T12:20:44;5.35;;;2.17;;
74259;SDS011;62630;55.874;37.516;2022-08-02T12:23:10;2.40;;;1.80;;
74259;SDS011;62630;55.874;37.516;2022-08-02T12:25:36;4.00;;;2.13;;
74259;SDS011;62630;55.874;37.516;2022-08-02T12:28:18;4.07;;;2.10;;
74259;SDS011;62630;55.874;37.516;2022-08-02T12:30:54;7.22;;;2.10;;
74259;SDS011;62630;55.874;37.516;2022-08-02T12:33:22;4.53;;;1.58;;
74259;SDS011;62630;55.874;37.516;2022-08-02T12:35:49;4.68;;;2.00;;
74259;SDS011;62630;55.874;37.516;2022-08-02T12:38:15;7.72;;;1.95;;
74259;SDS011;62630;55.874;37.516;2022-08-02T12:40:41;2.47;;;2.03;;
74259;SDS011;62630;55.874;37.516;2022-08-02T12:43:14;16.45;;;9.50;;
74259;SDS011;62630;55.874;37.516;2022-08-02T12:45:45;8.68;;;3.20;;
74259;SDS011;62630;55.874;37.516;2022-08-02T12:48:30;9.32;;;2.33;;
74259;SDS011;62630;55.874;37.516;2022-08-02T12:51:17;12.18;;;2.80;;
74259;SDS011;62630;55.874;37.516;2022-08-02T12:53:53;5.05;;;1.90;;
74259;SDS011;62630;55.874;37.516;2022-08-02T12:56:28;4.82;;;2.15;;
74259;SDS011;62630;55.874;37.516;2022-08-02T12:58:56;9.45;;;2.20;;
74259;SDS011;62630;55.874;37.516;2022-08-02T13:01:23;4.68;;;1.90;;
74259;SDS011;62630;55.874;37.516;2022-08-02T13:03:51;6.53;;;2.72;;
74259;SDS011;62630;55.874;37.516;2022-08-02T13:06:18;4.75;;;2.25;;
74259;SDS011;62630;55.874;37.516;2022-08-02T13:08:44;4.93;;;2.22;;
74259;SDS011;62630;55.874;37.516;2022-08-02T13:11:10;6.97;;;2.05;;
74259;SDS011;62630;55.874;37.516;2022-08-02T13:13:36;8.55;;;1.90;;
74259;SDS011;62630;55.874;37.516;2022-08-02T13:16:01;6.43;;;2.08;;
74259;SDS011;62630;55.874;37.516;2022-08-02T13:18:27;5.22;;;1.85;;
74259;SDS011;62630;55.874;37.516;2022-08-02T13:20:53;5.07;;;2.00;;
74259;SDS011;62630;55.874;37.516;2022-08-02T13:23:18;5.20;;;1.55;;
74259;SDS011;62630;55.874;37.516;2022-08-02T13:25:44;5.00;;;1.77;;
74259;SDS011;62630;55.874;37.516;2022-08-02T13:28:10;4.18;;;1.88;;
74259;SDS011;62630;55.874;37.516;2022-08-02T13:30:35;5.75;;;2.13;;
74259;SDS011;62630;55.874;37.516;2022-08-02T13:33:01;4.45;;;2.08;;
74259;SDS011;62630;55.874;37.516;2022-08-02T13:35:27;6.57;;;3.35;;
74259;SDS011;62630;55.874;37.516;2022-08-02T13:37:53;6.57;;;2.50;;
74259;SDS011;62630;55.874;37.516;2022-08-02T13:40:18;2.83;;;1.60;;
74259;SDS011;62630;55.874;37.516;2022-08-02T13:42:44;3.03;;;2.38;;
74259;SDS011;62630;55.874;37.516;2022-08-02T13:45:09;5.13;;;2.17;;
74259;SDS011;62630;55.874;37.516;2022-08-02T13:47:39;4.47;;;2.35;;
74259;SDS011;62630;55.874;37.516;2022-08-02T13:50:08;8.27;;;1.75;;
74259;SDS011;62630;55.874;37.516;2022-08-02T13:52:34;4.15;;;1.77;;
74259;SDS011;62630;55.874;37.516;2022-08-02T13:55:00;4.03;;;1.73;;
74259;SDS011;62630;55.874;37.516;2022-08-02T13:57:25;3.17;;;1.95;;
74259;SDS011;62630;55.874;37.516;2022-08-02T13:59:51;5.25;;;1.85;;
74259;SDS011;62630;55.874;37.516;2022-08-02T14:02:16;5.07;;;2.60;;
74259;SDS011;62630;55.874;37.516;2022-08-02T14:04:42;3.92;;;1.90;;
74259;SDS011;62630;55.874;37.516;2022-08-02T14:07:08;3.88;;;1.88;;
74259;SDS011;62630;55.874;37.516;2022-08-02T14:09:33;6.43;;;2.03;;
74259;SDS011;62630;55.874;37.516;2022-08-02T14:12:01;4.50;;;1.73;;
74259;SDS011;62630;55.874;37.516;2022-08-02T14:14:27;7.28;;;2.35;;
74259;SDS011;62630;55.874;37.516;2022-08-02T14:16:52;6.30;;;2.10;;
74259;SDS011;62630;55.874;37.516;2022-08-02T14:19:18;3.38;;;2.00;;
74259;SDS011;62630;55.874;37.516;2022-08-02T14:21:46;6.05;;;1.83;;
74259;SDS011;62630;55.874;37.516;2022-08-02T14:24:12;8.13;;;1.85;;
74259;SDS011;62630;55.874;37.516;2022-08-02T14:26:37;5.22;;;1.80;;
74259;SDS011;62630;55.874;37.516;2022-08-02T14:29:03;5.28;;;1.88;;
74259;SDS011;62630;55.874;37.516;2022-08-02T14:31:29;6.40;;;2.10;;
74259;SDS011;62630;55.874;37.516;2022-08-02T14:33:54;2.60;;;1.60;;
74259;SDS011;62630;55.874;37.516;2022-08-02T14:36:20;5.00;;;1.80;;
74259;SDS011;62630;55.874;37.516;2022-08-02T14:38:45;5.97;;;1.80;;
74259;SDS011;62630;55.874;37.516;2022-08-02T14:41:11;4.65;;;2.08;;
74259;SDS011;62630;55.874;37.516;2022-08-02T14:43:36;7.55;;;2.15;;
74259;SDS011;62630;55.874;37.516;2022-08-02T14:46:20;3.88;;;2.00;;
74259;SDS011;62630;55.874;37.516;2022-08-02T14:48:46;7.25;;;1.92;;
74259;SDS011;62630;55.874;37.516;2022-08-02T14:51:11;3.15;;;2.10;;
74259;SDS011;62630;55.874;37.516;2022-08-02T14:53:38;4.30;;;2.00;;
74259;SDS011;62630;55.874;37.516;2022-08-02T14:56:04;4.00;;;1.80;;
74259;SDS011;62630;55.874;37.516;2022-08-02T14:58:30;4.13;;;1.95;;
74259;SDS011;62630;55.874;37.516;2022-08-02T15:00:55;5.25;;;1.70;;
74259;SDS011;62630;55.874;37.516;2022-08-02T15:03:21;2.97;;;1.80;;
74259;SDS011;62630;55.874;37.516;2022-08-02T15:05:49;5.10;;;1.92;;
74259;SDS011;62630;55.874;37.516;2022-08-02T15:08:14;5.00;;;2.15;;
74259;SDS011;62630;55.874;37.516;2022-08-02T15:10:40;4.53;;;2.35;;
74259;SDS011;62630;55.874;37.516;2022-08-02T15:13:06;9.93;;;1.85;;
74259;SDS011;62630;55.874;37.516;2022-08-02T15:15:31;2.80;;;1.63;;
74259;SDS011;62630;55.874;37.516;2022-08-02T15:17:56;7.00;;;1.95;;
74259;SDS011;62630;55.874;37.516;2022-08-02T15:20:22;7.38;;;2.00;;
74259;SDS011;62630;55.874;37.516;2022-08-02T15:22:48;7.47;;;2.50;;
74259;SDS011;62630;55.874;37.516;2022-08-02T15:25:13;4.97;;;1.88;;
74259;SDS011;62630;55.874;37.516;2022-08-02T15:27:41;6.30;;;2.35;;
74259;SDS011;62630;55.874;37.516;2022-08-02T15:30:06;8.35;;;2.15;;
74259;SDS011;62630;55.874;37.516;2022-08-02T15:32:32;3.92;;;2.00;;
74259;SDS011;62630;55.874;37.516;2022-08-02T15:34:58;5.95;;;2.03;;
74259;SDS011;62630;55.874;37.516;2022-08-02T15:37:24;4.20;;;2.30;;
74259;SDS011;62630;55.874;37.516;2022-08-02T15:39:52;9.48;;;2.10;;
74259;SDS011;62630;55.874;37.516;2022-08-02T15:42:18;3.50;;;2.05;;
74259;SDS011;62630;55.874;37.516;2022-08-02T15:44:44;6.82;;;1.92;;